Detroit (DTW/KDTW)

Information

Location
Detroit, MI
Local Time
20:12 / 8:12 pm
GMT Time
00:12 / 12:12 am
Gates
Unassigned
No FAA reported delays
METAR KDTW 222353Z 17008KT 10SM SCT250 M01/M09 A3056 RMK AO2 SLP357 T10061089 10039 21006 53002
TAF KDTW 222320Z 2300/2406 VRB04KT P6SM SKC FM231500 12007KT P6SM BKN200 FM231800 12010KT P6SM OVC100 FM240000 14006KT P6SM OVC060 FM240400 16008KT 6SM -RA OVC045 WS020/22040KT
  • No charts available